Time;durP1;ratioP1;P1;durP2;ratioP2;P2;SDS_P1;SDS_P2;PMS_P1;PMS_P2;Temp;Humidity;BMP_temperature;BMP_pressure;BME280_temperature;BME280_humidity;BME280_pressure;Samples;Min_cycle;Max_cycle;Signal;HPM_P1;HPM_P2
2023/04/14 00:01:37;;;;;;;4.80;3.90;;;6.70;99.90;;;;;;5089022;28;20028;-54
2023/04/14 00:04:02;;;;;;;6.32;3.60;;;6.60;99.90;;;;;;5088560;28;20514;-50
2023/04/14 00:06:28;;;;;;;7.80;3.88;;;6.50;99.90;;;;;;5088521;28;20058;-49
2023/04/14 00:08:53;;;;;;;4.55;4.07;;;6.50;99.90;;;;;;5089875;28;20423;-52
2023/04/14 00:11:19;;;;;;;7.88;4.10;;;6.40;99.90;;;;;;5089669;28;20039;-52
2023/04/14 00:13:44;;;;;;;7.10;4.38;;;6.40;99.90;;;;;;5088752;28;20020;-52
2023/04/14 00:16:11;;;;;;;4.70;3.25;;;6.40;99.90;;;;;;5090980;28;20517;-51
2023/04/14 00:18:37;;;;;;;5.68;4.05;;;6.40;99.90;;;;;;5091522;28;20027;-47
2023/04/14 00:21:02;;;;;;;6.03;3.80;;;6.30;99.90;;;;;;5091326;28;20053;-54
2023/04/14 00:23:28;;;;;;;5.47;4.03;;;6.30;99.90;;;;;;5090534;28;20103;-53
2023/04/14 00:25:55;;;;;;;5.53;4.07;;;6.30;99.90;;;;;;5091377;28;20048;-49
2023/04/14 00:28:20;;;;;;;6.50;4.05;;;6.30;99.90;;;;;;5091567;28;20386;-51
2023/04/14 00:30:46;;;;;;;4.60;3.70;;;6.30;99.90;;;;;;5091562;28;20024;-49
2023/04/14 00:33:12;;;;;;;9.13;5.15;;;6.30;99.90;;;;;;5091308;28;20540;-49
2023/04/14 00:35:37;;;;;;;8.23;4.53;;;6.30;99.90;;;;;;5091405;28;20032;-51
2023/04/14 00:38:03;;;;;;;6.28;3.97;;;6.30;99.90;;;;;;5073310;28;20019;-50
2023/04/14 00:40:29;;;;;;;4.85;4.03;;;6.30;99.90;;;;;;5073014;28;20024;-49
2023/04/14 00:42:54;;;;;;;5.32;3.92;;;6.30;99.90;;;;;;5090830;28;20032;-47
2023/04/14 00:45:20;;;;;;;6.20;3.53;;;6.20;99.90;;;;;;5091267;28;20448;-49
2023/04/14 00:47:48;;;;;;;4.93;4.05;;;6.20;99.90;;;;;;5091471;28;20020;-51
2023/04/14 00:50:15;;;;;;;4.68;4.05;;;6.10;99.90;;;;;;5091327;28;20391;-49
2023/04/14 00:52:42;;;;;;;4.05;3.33;;;6.10;99.90;;;;;;5091097;28;20061;-53
2023/04/14 00:55:09;;;;;;;3.92;3.40;;;6.10;99.90;;;;;;5091111;28;20020;-49
2023/04/14 00:57:35;;;;;;;4.57;3.22;;;6.10;99.90;;;;;;5091274;28;20028;-48
2023/04/14 01:00:03;;;;;;;4.55;3.50;;;6.00;99.90;;;;;;5091173;28;20031;-47
2023/04/14 01:02:29;;;;;;;4.90;4.00;;;6.00;99.90;;;;;;5091180;28;20372;-48
2023/04/14 01:04:55;;;;;;;8.23;3.92;;;6.00;99.90;;;;;;5072838;28;20111;-47
2023/04/14 01:07:23;;;;;;;6.25;4.30;;;6.00;99.90;;;;;;5090997;28;20467;-50
2023/04/14 01:09:50;;;;;;;12.52;3.95;;;5.90;99.90;;;;;;5090761;28;20024;-48
2023/04/14 01:12:40;;;;;;;7.97;4.40;;;5.90;99.90;;;;;;5091044;28;20118;-50
2023/04/14 01:15:12;;;;;;;9.57;4.10;;;5.90;99.90;;;;;;5090593;28;20056;-52
2023/04/14 01:18:04;;;;;;;8.10;4.93;;;5.80;99.90;;;;;;5091264;28;20020;-49
2023/04/14 01:20:34;;;;;;;4.72;3.97;;;5.80;99.90;;;;;;5091036;28;20028;-48
2023/04/14 01:23:10;;;;;;;9.00;4.00;;;5.70;99.90;;;;;;5090783;28;20024;-49
2023/04/14 01:26:13;;;;;;;4.85;3.90;;;5.60;99.90;;;;;;5090859;28;20110;-47
2023/04/14 01:28:57;;;;;;;4.72;3.70;;;5.50;99.90;;;;;;5094569;28;20017;-51
2023/04/14 01:31:40;;;;;;;5.85;4.20;;;5.40;99.90;;;;;;5094422;28;20048;-51
2023/04/14 01:34:13;;;;;;;6.55;4.53;;;5.40;99.90;;;;;;5094527;28;20143;-48
2023/04/14 01:36:44;;;;;;;7.13;4.10;;;5.40;99.90;;;;;;5094631;28;20153;-48
2023/04/14 01:39:14;;;;;;;5.78;4.40;;;5.40;99.90;;;;;;5094488;28;20032;-47
2023/04/14 01:41:47;;;;;;;5.28;4.65;;;5.30;99.90;;;;;;5094413;28;20047;-47
2023/04/14 01:44:15;;;;;;;9.40;4.82;;;5.20;99.90;;;;;;5094156;28;20506;-54
2023/04/14 01:46:43;;;;;;;7.03;4.55;;;5.20;99.90;;;;;;5094438;28;20062;-51
2023/04/14 01:49:10;;;;;;;5.75;4.50;;;5.20;99.90;;;;;;5094137;28;20551;-48
2023/04/14 01:51:37;;;;;;;5.13;4.10;;;5.30;99.90;;;;;;5094177;28;20138;-54
2023/04/14 01:54:04;;;;;;;8.55;5.43;;;5.20;99.90;;;;;;5094365;28;20503;-52
2023/04/14 01:56:32;;;;;;;7.32;4.72;;;5.30;99.90;;;;;;5094191;28;20024;-51
2023/04/14 01:59:00;;;;;;;9.48;5.18;;;5.30;99.90;;;;;;5075880;28;20024;-52
2023/04/14 02:01:27;;;;;;;7.38;4.60;;;5.30;99.90;;;;;;5094173;28;20395;-48
2023/04/14 02:03:53;;;;;;;5.25;4.10;;;5.30;99.90;;;;;;5093873;28;20016;-48
2023/04/14 02:06:21;;;;;;;5.78;4.00;;;5.30;99.90;;;;;;5076125;28;20064;-49
2023/04/14 02:08:47;;;;;;;7.63;4.30;;;5.30;99.90;;;;;;5094030;28;20117;-49
2023/04/14 02:11:14;;;;;;;11.15;4.68;;;5.30;99.90;;;;;;5093743;28;20441;-49
2023/04/14 02:13:42;;;;;;;6.90;3.83;;;5.30;99.90;;;;;;5093595;28;20039;-54
2023/04/14 02:16:09;;;;;;;7.22;4.28;;;5.30;99.90;;;;;;5093977;28;20024;-50
2023/04/14 02:18:37;;;;;;;5.15;4.38;;;5.20;99.90;;;;;;5093552;28;20422;-51
2023/04/14 02:21:03;;;;;;;4.50;3.85;;;5.20;99.90;;;;;;5093711;28;20028;-52
2023/04/14 02:23:30;;;;;;;7.25;3.53;;;5.10;99.90;;;;;;5093734;28;20022;-49
2023/04/14 02:26:13;;;;;;;5.65;4.50;;;5.10;99.90;;;;;;5093723;28;20024;-51
2023/04/14 02:28:47;;;;;;;4.80;4.20;;;5.00;99.90;;;;;;5093535;28;20023;-50
2023/04/14 02:31:19;;;;;;;6.32;4.32;;;4.90;99.90;;;;;;5093552;28;20020;-56
2023/04/14 02:33:45;;;;;;;6.85;4.90;;;4.90;99.90;;;;;;5093454;28;20024;-52
2023/04/14 02:36:21;;;;;;;7.40;4.20;;;4.90;99.90;;;;;;5093320;28;20028;-54
2023/04/14 02:39:00;;;;;;;10.70;4.78;;;4.80;99.90;;;;;;5093186;28;20058;-50
2023/04/14 02:41:30;;;;;;;5.00;4.50;;;4.90;99.90;;;;;;5093088;28;20444;-54
2023/04/14 02:44:13;;;;;;;5.85;4.72;;;4.90;99.90;;;;;;5093000;28;20063;-51
2023/04/14 02:46:41;;;;;;;9.85;5.35;;;5.00;99.90;;;;;;5093377;28;20096;-50
2023/04/14 02:49:10;;;;;;;7.00;4.97;;;4.90;99.90;;;;;;5093182;28;20426;-53
2023/04/14 02:51:37;;;;;;;8.82;5.25;;;4.80;99.90;;;;;;5092731;28;20064;-56
2023/04/14 02:54:04;;;;;;;6.53;5.32;;;4.70;99.90;;;;;;5093088;28;20028;-48
2023/04/14 02:56:29;;;;;;;8.95;5.15;;;4.70;99.90;;;;;;5093131;28;20032;-49
2023/04/14 02:58:56;;;;;;;7.80;5.55;;;4.70;99.90;;;;;;5092928;28;20027;-52
2023/04/14 03:01:24;;;;;;;8.73;4.57;;;4.60;99.90;;;;;;5092930;28;20029;-55
2023/04/14 03:03:52;;;;;;;7.60;5.88;;;4.70;99.90;;;;;;5092952;28;20543;-49
2023/04/14 03:06:17;;;;;;;12.10;7.03;;;4.60;99.90;;;;;;5092983;28;20078;-48
2023/04/14 03:08:44;;;;;;;9.15;6.80;;;4.60;99.90;;;;;;5092785;28;20024;-50
2023/04/14 03:11:12;;;;;;;9.45;7.55;;;4.50;99.90;;;;;;5092482;28;20047;-50
2023/04/14 03:13:39;;;;;;;20.23;7.63;;;4.50;99.90;;;;;;5074215;28;20020;-49
2023/04/14 03:16:05;;;;;;;8.82;6.55;;;4.50;99.90;;;;;;5092637;28;20024;-52
2023/04/14 03:18:31;;;;;;;11.13;7.20;;;4.40;99.90;;;;;;5074278;28;20403;-49
2023/04/14 03:20:59;;;;;;;9.43;7.63;;;4.50;99.90;;;;;;5092651;28;20017;-52
2023/04/14 03:23:26;;;;;;;12.27;8.18;;;4.40;99.90;;;;;;5092397;28;20016;-50
2023/04/14 03:25:52;;;;;;;14.27;9.27;;;4.40;99.90;;;;;;5092186;28;20035;-52
2023/04/14 03:28:21;;;;;;;15.45;8.98;;;4.40;99.90;;;;;;5092259;28;20031;-54
2023/04/14 03:30:50;;;;;;;11.95;7.82;;;4.20;99.90;;;;;;5092548;28;20023;-52
2023/04/14 03:33:19;;;;;;;15.80;8.93;;;4.20;99.90;;;;;;5092311;28;20020;-48
2023/04/14 03:35:45;;;;;;;14.68;9.40;;;4.20;99.90;;;;;;5092482;28;20502;-48
2023/04/14 03:38:13;;;;;;;16.45;10.48;;;4.20;99.90;;;;;;5092392;28;20039;-54
2023/04/14 03:40:43;;;;;;;22.40;10.30;;;4.20;99.90;;;;;;5092353;28;20313;-47
2023/04/14 03:43:11;;;;;;;82.43;12.27;;;4.30;99.90;;;;;;5092238;28;20096;-48
2023/04/14 03:45:38;;;;;;;14.90;9.75;;;4.40;99.90;;;;;;5092107;28;20066;-48
2023/04/14 03:48:09;;;;;;;16.70;10.15;;;4.40;99.90;;;;;;5074063;28;20016;-48
2023/04/14 03:50:40;;;;;;;25.90;10.07;;;4.40;99.90;;;;;;5092198;28;20020;-47
2023/04/14 03:53:11;;;;;;;51.47;10.88;;;4.50;99.90;;;;;;5091844;28;20306;-50
2023/04/14 03:55:39;;;;;;;15.10;9.98;;;4.50;99.90;;;;;;5092000;28;20390;-48
2023/04/14 03:58:07;;;;;;;21.73;9.80;;;4.60;99.90;;;;;;5091963;28;20020;-48
2023/04/14 04:00:33;;;;;;;16.92;9.52;;;4.60;99.90;;;;;;5074032;28;20025;-48
2023/04/14 04:03:00;;;;;;;16.42;9.98;;;4.60;99.90;;;;;;5091672;28;20451;-48
2023/04/14 04:05:26;;;;;;;31.42;10.32;;;4.50;99.90;;;;;;5092010;28;20082;-48
2023/04/14 04:07:52;;;;;;;56.53;9.65;;;4.50;99.90;;;;;;5092063;28;20024;-51
2023/04/14 04:10:20;;;;;;;23.42;8.77;;;4.40;99.90;;;;;;5091346;28;20020;-51
2023/04/14 04:12:47;;;;;;;49.80;10.98;;;4.30;99.90;;;;;;5091780;28;20012;-53
2023/04/14 04:15:13;;;;;;;25.58;9.35;;;4.20;99.90;;;;;;5091868;28;20024;-53
2023/04/14 04:17:43;;;;;;;17.58;8.70;;;4.20;99.90;;;;;;5091884;28;20032;-53
2023/04/14 04:20:12;;;;;;;29.42;9.00;;;4.10;99.90;;;;;;5091699;28;20589;-48
2023/04/14 04:22:40;;;;;;;14.90;8.45;;;4.10;99.90;;;;;;5091769;28;20043;-49
2023/04/14 04:25:08;;;;;;;9.07;7.72;;;4.00;99.90;;;;;;5091927;28;20028;-51
2023/04/14 04:27:34;;;;;;;10.00;8.45;;;4.00;99.90;;;;;;5092668;28;20031;-52
2023/04/14 04:30:00;;;;;;;9.30;8.10;;;4.00;99.90;;;;;;5097566;28;20025;-49
2023/04/14 04:32:26;;;;;;;23.85;8.48;;;4.00;99.90;;;;;;5091844;28;20028;-53
2023/04/14 04:34:53;;;;;;;13.43;8.05;;;3.90;99.90;;;;;;5091590;28;20024;-50
2023/04/14 04:37:20;;;;;;;59.85;9.00;;;3.90;99.90;;;;;;5091614;28;20024;-49
2023/04/14 04:39:47;;;;;;;37.75;7.63;;;3.90;99.90;;;;;;5091919;28;20020;-54
2023/04/14 04:42:13;;;;;;;13.90;8.20;;;3.80;99.90;;;;;;5091212;28;20035;-48
2023/04/14 04:44:38;;;;;;;16.42;7.57;;;3.70;99.90;;;;;;5091221;28;20028;-49
2023/04/14 04:47:04;;;;;;;23.10;8.18;;;3.70;99.90;;;;;;5091555;28;20399;-54
2023/04/14 04:49:29;;;;;;;9.68;7.05;;;3.70;99.90;;;;;;5091603;28;20028;-49
2023/04/14 04:51:55;;;;;;;56.70;8.40;;;3.70;99.90;;;;;;5091494;28;20032;-49
2023/04/14 04:54:21;;;;;;;18.17;7.90;;;3.70;99.90;;;;;;5091717;28;20422;-49
2023/04/14 04:56:46;;;;;;;69.15;10.25;;;3.70;99.90;;;;;;5073131;28;20090;-49
2023/04/14 04:59:12;;;;;;;30.85;8.57;;;3.70;99.90;;;;;;5091317;28;20024;-48
2023/04/14 05:01:37;;;;;;;12.50;7.38;;;3.70;99.90;;;;;;5093521;28;20032;-53
2023/04/14 05:04:03;;;;;;;78.30;9.27;;;3.70;99.90;;;;;;5094796;28;20032;-51
2023/04/14 05:06:28;;;;;;;75.78;7.55;;;3.60;99.90;;;;;;5095147;28;20046;-54
2023/04/14 05:08:55;;;;;;;36.63;6.70;;;3.50;99.90;;;;;;5076851;28;20383;-48
2023/04/14 05:11:21;;;;;;;46.10;7.50;;;3.50;99.90;;;;;;5094728;28;20047;-47
2023/04/14 05:13:46;;;;;;;147.32;9.80;;;3.50;99.90;;;;;;5094819;28;20107;-49
2023/04/14 05:16:13;;;;;;;56.28;8.23;;;3.50;99.90;;;;;;5095198;28;20068;-48
2023/04/14 05:18:38;;;;;;;54.45;8.07;;;3.60;99.90;;;;;;5095292;28;20035;-48
2023/04/14 05:21:09;;;;;;;9.05;6.47;;;3.60;99.90;;;;;;5095012;28;20395;-48
2023/04/14 05:23:36;;;;;;;7.60;6.80;;;3.70;99.90;;;;;;5094760;28;20115;-49
2023/04/14 05:26:03;;;;;;;8.75;5.88;;;3.90;99.90;;;;;;5094926;28;20450;-47
2023/04/14 05:28:29;;;;;;;14.88;6.47;;;4.00;99.90;;;;;;5095018;28;20020;-48
2023/04/14 05:30:54;;;;;;;15.25;7.47;;;4.20;99.90;;;;;;5076463;28;20024;-50
2023/04/14 05:33:20;;;;;;;37.05;7.57;;;4.40;99.90;;;;;;5094511;28;20069;-48
2023/04/14 05:35:46;;;;;;;26.80;6.32;;;4.50;99.90;;;;;;5094333;28;20360;-49
2023/04/14 05:38:12;;;;;;;14.68;5.30;;;4.60;99.90;;;;;;5094786;28;20124;-55
2023/04/14 05:40:38;;;;;;;7.63;5.88;;;4.70;99.90;;;;;;5094647;28;20024;-49
2023/04/14 05:43:04;;;;;;;8.45;5.70;;;4.90;99.90;;;;;;5094206;28;20035;-53
2023/04/14 05:45:30;;;;;;;6.30;5.68;;;5.10;99.90;;;;;;5094364;28;20117;-55
2023/04/14 05:47:55;;;;;;;14.15;5.90;;;5.30;99.90;;;;;;5094412;28;20103;-49
2023/04/14 05:50:21;;;;;;;6.10;5.50;;;5.40;99.90;;;;;;5094305;28;20016;-48
2023/04/14 05:52:47;;;;;;;6.95;6.07;;;5.60;99.90;;;;;;5094249;28;20020;-48
2023/04/14 05:55:13;;;;;;;6.25;5.55;;;5.70;99.90;;;;;;5094354;28;20020;-50
2023/04/14 05:57:38;;;;;;;6.22;5.22;;;5.90;99.90;;;;;;5094328;28;20054;-53
2023/04/14 06:00:06;;;;;;;6.60;5.93;;;6.10;99.90;;;;;;5094077;28;20028;-51
2023/04/14 06:02:31;;;;;;;6.55;5.85;;;6.30;99.90;;;;;;5094170;28;20031;-50
2023/04/14 06:04:58;;;;;;;8.38;5.82;;;6.40;99.90;;;;;;5075763;28;20107;-50
2023/04/14 06:07:24;;;;;;;7.00;6.20;;;6.30;99.90;;;;;;5094194;28;20012;-49
2023/04/14 06:09:50;;;;;;;9.15;6.50;;;6.30;99.90;;;;;;5094025;28;20020;-52
2023/04/14 06:12:15;;;;;;;6.88;6.07;;;6.40;99.90;;;;;;5093516;28;20392;-48
2023/04/14 06:14:41;;;;;;;7.43;6.43;;;6.50;99.90;;;;;;5093910;28;20064;-51
2023/04/14 06:17:07;;;;;;;7.13;6.38;;;6.60;99.90;;;;;;5094120;28;20107;-49
2023/04/14 06:19:32;;;;;;;10.40;7.57;;;6.60;99.90;;;;;;5093906;28;20479;-51
2023/04/14 06:21:58;;;;;;;13.85;8.80;;;6.60;99.90;;;;;;5093753;28;20043;-50
2023/04/14 06:24:23;;;;;;;18.63;9.60;;;6.70;99.90;;;;;;5093514;28;20032;-53
2023/04/14 06:26:49;;;;;;;18.83;9.63;;;6.80;99.90;;;;;;5093753;28;20427;-52
2023/04/14 06:29:14;;;;;;;12.43;9.02;;;6.70;99.90;;;;;;5093684;28;20101;-48
2023/04/14 06:31:40;;;;;;;19.02;9.20;;;6.80;99.90;;;;;;5093630;28;20024;-51
2023/04/14 06:34:05;;;;;;;17.33;9.35;;;6.80;99.90;;;;;;5093370;28;20440;-52
2023/04/14 06:36:31;;;;;;;12.57;7.90;;;6.90;99.90;;;;;;5093392;28;20028;-49
2023/04/14 06:38:57;;;;;;;13.27;9.05;;;7.00;99.90;;;;;;5092997;28;20111;-52
2023/04/14 06:41:23;;;;;;;28.55;9.95;;;7.20;99.90;;;;;;5093465;28;20399;-48
2023/04/14 06:43:49;;;;;;;29.33;10.93;;;7.40;99.90;;;;;;5093326;28;20024;-48
2023/04/14 06:46:16;;;;;;;18.40;10.07;;;7.60;99.90;;;;;;5093424;28;20057;-54
2023/04/14 06:48:41;;;;;;;28.38;11.23;;;7.70;99.90;;;;;;5093030;28;20021;-51
2023/04/14 06:51:09;;;;;;;54.80;12.18;;;7.80;99.90;;;;;;5075133;28;20392;-52
2023/04/14 06:53:35;;;;;;;23.65;10.70;;;7.80;99.90;;;;;;5093002;28;20019;-51
2023/04/14 06:56:01;;;;;;;19.73;10.70;;;7.80;99.90;;;;;;5093025;28;20036;-51
2023/04/14 06:58:27;;;;;;;15.50;10.02;;;7.80;99.90;;;;;;5093135;28;20024;-48
2023/04/14 07:01:00;;;;;;;22.02;10.38;;;8.00;99.90;;;;;;5095927;28;20022;-53
2023/04/14 07:03:27;;;;;;;16.60;9.65;;;8.40;99.90;;;;;;5092423;28;20047;-50
2023/04/14 07:05:53;;;;;;;22.40;11.98;;;8.40;99.90;;;;;;5112717;28;20063;-52
2023/04/14 07:08:19;;;;;;;16.65;9.30;;;8.60;99.90;;;;;;5108391;28;20024;-50
2023/04/14 07:10:45;;;;;;;18.33;9.00;;;8.80;99.90;;;;;;5113349;28;20095;-54
2023/04/14 07:13:11;;;;;;;14.48;8.77;;;9.50;99.90;;;;;;5094312;28;20077;-53
2023/04/14 07:15:36;;;;;;;13.23;7.40;;;11.00;99.90;;;;;;5111672;28;20382;-49
2023/04/14 07:18:02;;;;;;;14.02;7.00;;;11.80;99.90;;;;;;5094457;28;20376;-48
2023/04/14 07:20:28;;;;;;;11.73;7.38;;;12.00;99.90;;;;;;5113121;28;20023;-53
2023/04/14 07:22:54;;;;;;;14.30;8.13;;;11.60;99.90;;;;;;5112768;28;20020;-52
2023/04/14 07:25:20;;;;;;;12.38;7.68;;;11.20;99.90;;;;;;5111723;28;20541;-52
2023/04/14 07:27:46;;;;;;;14.07;8.07;;;10.90;99.90;;;;;;5112801;28;20441;-51
2023/04/14 07:30:12;;;;;;;19.55;10.00;;;10.90;99.90;;;;;;5112763;28;20026;-54
2023/04/14 07:32:38;;;;;;;16.60;8.55;;;;;;;;;;5112900;28;20024;-49
2023/04/14 07:35:04;;;;;;;18.35;8.27;;;12.70;99.90;;;;;;5112983;28;20027;-52
2023/04/14 07:37:30;;;;;;;14.18;8.95;;;12.50;99.90;;;;;;5112760;28;20107;-51
2023/04/14 07:39:57;;;;;;;16.60;8.50;;;12.40;99.90;;;;;;5094433;28;20514;-52
2023/04/14 07:42:24;;;;;;;17.00;9.80;;;13.20;99.90;;;;;;5112512;28;20032;-48
2023/04/14 07:44:50;;;;;;;19.23;9.27;;;;;;;;;;5112343;28;20035;-50
2023/04/14 07:47:15;;;;;;;17.48;9.43;;;14.30;99.90;;;;;;5112465;28;20019;-47
2023/04/14 07:49:41;;;;;;;19.95;10.32;;;14.30;99.90;;;;;;5111764;28;20086;-49
2023/04/14 07:52:06;;;;;;;21.70;11.50;;;14.50;99.90;;;;;;5111585;28;20016;-49
2023/04/14 07:54:32;;;;;;;16.33;10.85;;;;;;;;;;5110708;28;20396;-52
2023/04/14 07:56:58;;;;;;;21.38;10.30;;;14.70;99.90;;;;;;5108551;28;20111;-51
2023/04/14 07:59:23;;;;;;;13.18;9.93;;;14.60;99.90;;;;;;5111938;28;20106;-49
2023/04/14 08:01:49;;;;;;;15.48;9.50;;;14.70;99.90;;;;;;5112254;28;20032;-54
2023/04/14 08:04:14;;;;;;;14.68;8.93;;;15.10;99.90;;;;;;5111406;28;20020;-50
2023/04/14 08:06:40;;;;;;;19.15;9.05;;;16.00;99.90;;;;;;5112337;28;20487;-48
2023/04/14 08:09:06;;;;;;;14.93;8.73;;;16.80;98.90;;;;;;5112084;28;20023;-49
2023/04/14 08:11:31;;;;;;;14.02;8.40;;;17.60;96.60;;;;;;5111962;28;20059;-53
2023/04/14 08:13:57;;;;;;;13.85;8.00;;;18.50;95.70;;;;;;5112396;28;20085;-50
2023/04/14 08:16:23;;;;;;;13.27;7.15;;;19.40;94.60;;;;;;5112015;28;20027;-53
2023/04/14 08:18:50;;;;;;;17.13;8.32;;;20.10;92.90;;;;;;5111595;28;20024;-56
2023/04/14 08:21:15;;;;;;;9.85;7.20;;;20.50;92.10;;;;;;5110512;28;20027;-54
2023/04/14 08:23:41;;;;;;;12.60;8.13;;;21.00;90.70;;;;;;5111147;28;20517;-51
2023/04/14 08:26:06;;;;;;;9.18;7.20;;;21.50;88.80;;;;;;5112050;28;20031;-49
2023/04/14 08:28:32;;;;;;;12.27;6.97;;;21.10;87.80;;;;;;5097788;28;20016;-55
2023/04/14 08:30:57;;;;;;;13.80;7.70;;;21.30;87.00;;;;;;5101080;28;20023;-57
2023/04/14 08:33:23;;;;;;;10.35;7.80;;;21.30;86.20;;;;;;5111638;28;20019;-48
2023/04/14 08:35:49;;;;;;;12.88;7.43;;;21.50;84.70;;;;;;5111395;28;20034;-52
2023/04/14 08:38:14;;;;;;;11.40;6.82;;;21.70;83.40;;;;;;5110310;28;20398;-51
2023/04/14 08:40:42;;;;;;;12.50;7.68;;;21.40;83.20;;;;;;5097774;28;20023;-48
2023/04/14 08:43:08;;;;;;;13.57;7.47;;;21.40;84.40;;;;;;5093314;28;20119;-47
2023/04/14 08:45:35;;;;;;;12.27;7.55;;;21.00;84.10;;;;;;5111661;28;20504;-47
2023/04/14 08:48:04;;;;;;;9.23;6.50;;;21.00;84.50;;;;;;5111806;28;20076;-51
2023/04/14 08:50:35;;;;;;;12.57;7.50;;;20.80;85.00;;;;;;5111375;28;20027;-46
2023/04/14 08:53:03;;;;;;;12.38;6.80;;;20.70;85.70;;;;;;5110800;28;20012;-49
2023/04/14 08:55:29;;;;;;;20.73;8.18;;;20.60;86.00;;;;;;5111153;28;20228;-48
2023/04/14 08:57:55;;;;;;;10.40;6.80;;;20.60;86.70;;;;;;5094867;28;20359;-47
2023/04/14 09:00:21;;;;;;;12.93;8.23;;;20.90;86.60;;;;;;5107390;28;20035;-54
2023/04/14 09:02:47;;;;;;;16.45;7.70;;;21.10;85.60;;;;;;5110770;28;20032;-46
2023/04/14 09:05:14;;;;;;;15.13;7.10;;;21.40;84.30;;;;;;5093309;28;20062;-49
2023/04/14 09:07:41;;;;;;;12.63;8.05;;;20.30;86.10;;;;;;5110497;28;20024;-53
2023/04/14 09:10:08;;;;;;;14.50;7.50;;;19.80;86.90;;;;;;5111131;28;20046;-53
2023/04/14 09:12:35;;;;;;;17.92;8.88;;;19.50;88.50;;;;;;5092611;28;20035;-50
2023/04/14 09:15:01;;;;;;;16.85;7.78;;;19.40;89.20;;;;;;5093362;28;20028;-51
2023/04/14 09:17:28;;;;;;;13.57;7.43;;;19.30;89.40;;;;;;5111499;28;20059;-50
2023/04/14 09:19:54;;;;;;;22.55;15.32;;;19.40;89.50;;;;;;5110386;28;20055;-58
2023/04/14 09:22:20;;;;;;;117.20;70.03;;;19.70;88.70;;;;;;5111248;28;20090;-49
2023/04/14 09:24:46;;;;;;;19.70;10.07;;;19.90;88.30;;;;;;5092836;28;20448;-55
2023/04/14 09:27:11;;;;;;;13.73;7.25;;;20.00;88.50;;;;;;5110260;28;20022;-56
2023/04/14 09:29:37;;;;;;;19.13;8.18;;;19.80;88.50;;;;;;5111219;28;20019;-55
2023/04/14 09:32:04;;;;;;;17.23;7.03;;;20.00;89.70;;;;;;5111682;28;20023;-52
2023/04/14 09:34:30;;;;;;;20.13;8.27;;;19.80;89.50;;;;;;5111257;28;20035;-52
2023/04/14 09:37:04;;;;;;;16.52;7.03;;;19.00;89.70;;;;;;5111235;28;20369;-51
2023/04/14 09:39:34;;;;;;;14.85;7.53;;;18.00;91.10;;;;;;5110882;28;20487;-52
2023/04/14 09:42:01;;;;;;;17.10;6.50;;;17.10;92.90;;;;;;5110694;28;20035;-54
2023/04/14 09:44:27;;;;;;;10.10;6.28;;;16.40;94.50;;;;;;5110049;28;20060;-54
2023/04/14 09:47:01;;;;;;;15.50;7.05;;;16.40;95.40;;;;;;5098382;28;20016;-53
2023/04/14 09:49:28;;;;;;;;;;;16.70;95.10;;;;;;5077269;28;20024;-55
2023/04/14 09:51:59;;;;;;;13.38;7.20;;;17.10;94.70;;;;;;5113670;28;19907;-50
2023/04/14 09:54:26;;;;;;;12.57;5.85;;;17.30;94.00;;;;;;5112495;28;20032;-58
2023/04/14 09:56:54;;;;;;;8.18;5.43;;;17.40;93.50;;;;;;5105931;28;20024;-55
2023/04/14 09:59:49;;;;;;;15.93;5.28;;;17.50;93.70;;;;;;5105021;28;20068;-51
2023/04/14 10:02:17;;;;;;;11.32;5.45;;;17.60;92.80;;;;;;5092415;28;20047;-52
2023/04/14 10:04:43;;;;;;;8.52;5.25;;;17.60;93.00;;;;;;5114343;28;20023;-50
2023/04/14 10:07:10;;;;;;;12.20;4.82;;;17.60;93.50;;;;;;5114322;28;20436;-51
2023/04/14 10:09:37;;;;;;;7.93;4.85;;;17.80;93.40;;;;;;5114391;28;20046;-52
2023/04/14 10:12:09;;;;;;;11.27;5.30;;;17.60;92.80;;;;;;5114146;28;20157;-53
2023/04/14 10:14:35;;;;;;;8.82;5.13;;;17.60;93.30;;;;;;5096017;28;20058;-54
2023/04/14 10:17:01;;;;;;;8.05;5.05;;;17.40;92.70;;;;;;5114150;28;20088;-53
2023/04/14 10:19:28;;;;;;;7.95;4.85;;;17.10;93.40;;;;;;5113840;28;20039;-53
2023/04/14 10:21:54;;;;;;;10.98;5.00;;;17.00;93.70;;;;;;5114199;28;20027;-54
2023/04/14 10:24:23;;;;;;;14.85;5.40;;;16.90;93.90;;;;;;5113886;28;20027;-53
2023/04/14 10:26:50;;;;;;;12.32;5.00;;;16.80;94.30;;;;;;5114439;28;20099;-56
2023/04/14 10:29:16;;;;;;;12.88;4.70;;;16.70;94.30;;;;;;5114353;28;20502;-53
2023/04/14 10:31:46;;;;;;;10.95;5.10;;;16.60;94.80;;;;;;5114339;28;20023;-53
2023/04/14 10:34:13;;;;;;;13.27;4.25;;;16.60;95.90;;;;;;5114381;28;20034;-52
2023/04/14 10:36:39;;;;;;;17.02;4.97;;;16.50;94.40;;;;;;5114122;28;20042;-55
2023/04/14 10:39:06;;;;;;;8.75;3.85;;;16.20;94.30;;;;;;5114110;28;20039;-53
2023/04/14 10:41:48;;;;;;;12.15;4.22;;;15.90;94.20;;;;;;5113945;28;20035;-50
2023/04/14 10:44:31;;;;;;;9.90;4.22;;;15.70;94.60;;;;;;5114220;28;20024;-54
2023/04/14 10:46:59;;;;;;;8.93;4.13;;;15.60;94.90;;;;;;5114856;28;20020;-51
2023/04/14 10:49:28;;;;;;;6.85;3.95;;;15.40;95.40;;;;;;5114267;28;20453;-52
2023/04/14 10:51:53;;;;;;;7.15;4.13;;;15.30;95.40;;;;;;5113684;28;20019;-54
2023/04/14 10:54:19;;;;;;;8.38;4.35;;;15.20;96.50;;;;;;5113123;28;20054;-53
2023/04/14 10:57:24;;;;;;;9.68;4.05;;;15.10;96.60;;;;;;5113636;28;20051;-52
2023/04/14 10:59:53;;;;;;;5.55;3.38;;;15.10;96.00;;;;;;5050462;28;20040;-50
2023/04/14 11:02:30;;;;;;;12.85;4.93;;;15.00;95.50;;;;;;5050270;28;20056;-50
2023/04/14 11:05:03;;;;;;;11.38;4.00;;;15.00;95.50;;;;;;5086115;28;20035;-55
2023/04/14 11:07:30;;;;;;;8.05;4.15;;;14.90;95.30;;;;;;5113069;28;20042;-51
2023/04/14 11:10:19;;;;;;;8.73;4.25;;;14.80;96.10;;;;;;5095145;28;20011;-51
2023/04/14 11:13:02;;;;;;;10.60;3.78;;;14.70;96.00;;;;;;5104937;28;20055;-55
2023/04/14 11:15:50;;;;;;;10.25;3.00;;;14.70;97.40;;;;;;5113251;28;20023;-54
2023/04/14 11:18:18;;;;;;;10.57;3.38;;;14.70;95.30;;;;;;5113023;28;20084;-52
2023/04/14 11:20:43;;;;;;;7.95;2.65;;;14.70;95.10;;;;;;5094644;28;20038;-55
2023/04/14 11:23:12;;;;;;;6.65;2.80;;;14.80;95.60;;;;;;5112648;28;20443;-52
2023/04/14 11:25:39;;;;;;;8.80;2.90;;;14.80;94.50;;;;;;5112818;28;20062;-52
2023/04/14 11:28:04;;;;;;;7.30;2.63;;;14.80;93.80;;;;;;5112249;28;20364;-53
2023/04/14 11:30:30;;;;;;;9.55;2.88;;;14.90;93.30;;;;;;5112688;28;20020;-54
2023/04/14 11:32:57;;;;;;;9.05;2.58;;;14.80;94.00;;;;;;5112597;28;20048;-53
2023/04/14 11:35:24;;;;;;;10.40;2.80;;;14.90;94.30;;;;;;5094346;28;20030;-53
2023/04/14 11:37:54;;;;;;;9.43;3.17;;;15.00;95.30;;;;;;5112771;28;20028;-51
2023/04/14 11:40:21;;;;;;;10.50;3.10;;;15.00;96.00;;;;;;5112729;28;20039;-53
2023/04/14 11:42:51;;;;;;;4.65;2.67;;;15.00;95.50;;;;;;5093853;28;20514;-55
2023/04/14 11:45:17;;;;;;;7.00;2.50;;;15.00;95.00;;;;;;5112791;28;20023;-54
2023/04/14 11:48:03;;;;;;;11.00;4.38;;;15.00;95.80;;;;;;5112932;28;20016;-54
2023/04/14 11:50:30;;;;;;;;;;;15.00;96.30;;;;;;5112843;28;20028;-50
2023/04/14 11:52:58;;;;;;;9.05;3.35;;;14.90;95.40;;;;;;5112224;28;20321;-53
2023/04/14 11:55:28;;;;;;;10.88;3.15;;;14.90;95.00;;;;;;5112261;28;20028;-52
2023/04/14 11:57:57;;;;;;;11.80;2.50;;;14.90;94.40;;;;;;5112505;28;20026;-50
2023/04/14 12:00:23;;;;;;;5.20;2.45;;;15.40;94.30;;;;;;5111706;28;20046;-54
2023/04/14 12:02:49;;;;;;;5.55;2.05;;;14.80;95.00;;;;;;5112440;28;20098;-49
2023/04/14 12:05:29;;;;;;;5.68;1.90;;;14.80;94.20;;;;;;5112130;28;20027;-49
2023/04/14 12:07:58;;;;;;;6.55;2.50;;;14.80;91.40;;;;;;5112067;28;20023;-50
2023/04/14 12:10:24;;;;;;;7.22;2.22;;;14.80;93.10;;;;;;5093849;28;20020;-50
2023/04/14 12:12:57;;;;;;;6.85;2.05;;;14.80;94.00;;;;;;5112235;28;20027;-57
2023/04/14 12:15:23;;;;;;;9.77;2.30;;;14.90;93.90;;;;;;5110801;28;20483;-53
2023/04/14 12:17:49;;;;;;;5.88;2.28;;;15.10;94.40;;;;;;5110615;28;20379;-55
2023/04/14 12:20:15;;;;;;;6.00;1.65;;;15.10;92.30;;;;;;5111867;28;20024;-56
2023/04/14 12:22:41;;;;;;;4.32;1.67;;;15.10;92.90;;;;;;5111750;28;20053;-53
2023/04/14 12:25:11;;;;;;;4.28;1.60;;;15.20;92.90;;;;;;5111740;28;20031;-54
2023/04/14 12:27:37;;;;;;;5.28;1.90;;;15.30;92.90;;;;;;5111856;28;20020;-54
2023/04/14 12:30:04;;;;;;;5.88;2.35;;;15.30;93.20;;;;;;5111667;28;20023;-53
2023/04/14 12:32:39;;;;;;;6.05;2.05;;;15.20;92.50;;;;;;5111293;28;20028;-54
2023/04/14 12:35:05;;;;;;;;;;;15.10;90.80;;;;;;5112148;28;20019;-54
2023/04/14 12:37:32;;;;;;;5.30;1.67;;;15.10;91.20;;;;;;5111773;28;19936;-54
2023/04/14 12:40:00;;;;;;;4.90;1.52;;;15.20;90.90;;;;;;5111724;28;20084;-52
2023/04/14 12:42:46;;;;;;;6.80;2.10;;;15.10;90.80;;;;;;5111411;28;20482;-54
2023/04/14 12:45:12;;;;;;;6.70;2.55;;;15.10;90.00;;;;;;5111471;28;20053;-52
2023/04/14 12:47:38;;;;;;;4.50;1.30;;;15.20;90.80;;;;;;5111392;28;20020;-50
2023/04/14 12:50:22;;;;;;;3.05;1.70;;;15.10;92.80;;;;;;5111568;28;20024;-56
2023/04/14 12:52:48;;;;;;;7.78;2.10;;;15.00;89.50;;;;;;5110865;28;20487;-48